sensor_id;sensor_type;location;lat;lon;timestamp;P1;durP1;ratioP1;P2;durP2;ratioP2
70560;SDS011;58109;53.570;10.084;2023-02-15T00:01:46;95.73;;;38.57;;
70560;SDS011;58109;53.570;10.084;2023-02-15T00:04:15;79.80;;;35.87;;
70560;SDS011;58109;53.570;10.084;2023-02-15T00:06:42;89.07;;;37.30;;
70560;SDS011;58109;53.570;10.084;2023-02-15T00:09:08;86.93;;;36.57;;
70560;SDS011;58109;53.570;10.084;2023-02-15T00:11:34;89.50;;;36.63;;
70560;SDS011;58109;53.570;10.084;2023-02-15T00:14:10;84.40;;;36.23;;
70560;SDS011;58109;53.570;10.084;2023-02-15T00:16:37;81.63;;;37.23;;
70560;SDS011;58109;53.570;10.084;2023-02-15T00:19:05;77.97;;;36.30;;
70560;SDS011;58109;53.570;10.084;2023-02-15T00:21:32;82.67;;;35.70;;
70560;SDS011;58109;53.570;10.084;2023-02-15T00:23:58;78.40;;;35.70;;
70560;SDS011;58109;53.570;10.084;2023-02-15T00:26:25;87.93;;;37.77;;
70560;SDS011;58109;53.570;10.084;2023-02-15T00:28:51;87.47;;;38.63;;
70560;SDS011;58109;53.570;10.084;2023-02-15T00:31:17;86.20;;;38.77;;
70560;SDS011;58109;53.570;10.084;2023-02-15T00:33:44;76.83;;;35.00;;
70560;SDS011;58109;53.570;10.084;2023-02-15T00:36:10;86.10;;;36.13;;
70560;SDS011;58109;53.570;10.084;2023-02-15T00:38:38;81.40;;;35.60;;
70560;SDS011;58109;53.570;10.084;2023-02-15T00:41:04;87.47;;;37.60;;
70560;SDS011;58109;53.570;10.084;2023-02-15T00:43:31;85.30;;;37.20;;
70560;SDS011;58109;53.570;10.084;2023-02-15T00:45:59;96.63;;;37.50;;
70560;SDS011;58109;53.570;10.084;2023-02-15T00:48:25;91.63;;;38.80;;
70560;SDS011;58109;53.570;10.084;2023-02-15T00:50:52;88.00;;;38.30;;
70560;SDS011;58109;53.570;10.084;2023-02-15T00:53:19;84.13;;;37.23;;
70560;SDS011;58109;53.570;10.084;2023-02-15T00:55:45;92.07;;;38.20;;
70560;SDS011;58109;53.570;10.084;2023-02-15T00:58:10;95.70;;;38.10;;
70560;SDS011;58109;53.570;10.084;2023-02-15T01:00:39;84.27;;;36.30;;
70560;SDS011;58109;53.570;10.084;2023-02-15T01:03:06;100.27;;;37.57;;
70560;SDS011;58109;53.570;10.084;2023-02-15T01:05:31;88.10;;;37.23;;
70560;SDS011;58109;53.570;10.084;2023-02-15T01:07:57;80.73;;;36.87;;
70560;SDS011;58109;53.570;10.084;2023-02-15T01:10:25;90.57;;;37.87;;
70560;SDS011;58109;53.570;10.084;2023-02-15T01:12:52;81.70;;;35.90;;
70560;SDS011;58109;53.570;10.084;2023-02-15T01:15:18;81.60;;;34.50;;
70560;SDS011;58109;53.570;10.084;2023-02-15T01:17:43;86.27;;;36.47;;
70560;SDS011;58109;53.570;10.084;2023-02-15T01:20:16;86.23;;;37.67;;
70560;SDS011;58109;53.570;10.084;2023-02-15T01:22:43;82.90;;;36.00;;
70560;SDS011;58109;53.570;10.084;2023-02-15T01:25:09;80.13;;;36.70;;
70560;SDS011;58109;53.570;10.084;2023-02-15T01:27:34;81.87;;;35.93;;
70560;SDS011;58109;53.570;10.084;2023-02-15T01:30:00;77.67;;;33.37;;
70560;SDS011;58109;53.570;10.084;2023-02-15T01:32:29;83.17;;;36.80;;
70560;SDS011;58109;53.570;10.084;2023-02-15T01:34:55;89.20;;;36.97;;
70560;SDS011;58109;53.570;10.084;2023-02-15T01:37:21;86.40;;;36.60;;
70560;SDS011;58109;53.570;10.084;2023-02-15T01:39:51;93.20;;;35.10;;
70560;SDS011;58109;53.570;10.084;2023-02-15T01:42:24;91.57;;;35.97;;
70560;SDS011;58109;53.570;10.084;2023-02-15T01:44:59;82.93;;;34.87;;
70560;SDS011;58109;53.570;10.084;2023-02-15T01:47:32;91.87;;;38.70;;
70560;SDS011;58109;53.570;10.084;2023-02-15T01:52:41;85.67;;;36.77;;
70560;SDS011;58109;53.570;10.084;2023-02-15T01:55:13;87.57;;;35.93;;
70560;SDS011;58109;53.570;10.084;2023-02-15T01:57:38;79.50;;;34.83;;
70560;SDS011;58109;53.570;10.084;2023-02-15T02:00:04;88.83;;;35.60;;
70560;SDS011;58109;53.570;10.084;2023-02-15T02:02:31;84.13;;;35.53;;
70560;SDS011;58109;53.570;10.084;2023-02-15T02:04:58;83.17;;;34.43;;
70560;SDS011;58109;53.570;10.084;2023-02-15T02:07:28;77.67;;;34.33;;
70560;SDS011;58109;53.570;10.084;2023-02-15T02:09:57;89.93;;;34.20;;
70560;SDS011;58109;53.570;10.084;2023-02-15T02:12:22;89.43;;;35.10;;
70560;SDS011;58109;53.570;10.084;2023-02-15T02:14:50;79.27;;;34.77;;
70560;SDS011;58109;53.570;10.084;2023-02-15T02:17:17;87.57;;;35.00;;
70560;SDS011;58109;53.570;10.084;2023-02-15T02:31:19;79.80;;;33.20;;
70560;SDS011;58109;53.570;10.084;2023-02-15T02:36:33;79.97;;;34.00;;
70560;SDS011;58109;53.570;10.084;2023-02-15T02:43:52;83.53;;;34.73;;
70560;SDS011;58109;53.570;10.084;2023-02-15T02:47:22;90.70;;;36.27;;
70560;SDS011;58109;53.570;10.084;2023-02-15T02:49:31;79.83;;;33.03;;
70560;SDS011;58109;53.570;10.084;2023-02-15T02:52:01;81.00;;;35.27;;
70560;SDS011;58109;53.570;10.084;2023-02-15T02:54:28;87.70;;;34.40;;
70560;SDS011;58109;53.570;10.084;2023-02-15T02:56:55;75.83;;;33.47;;
70560;SDS011;58109;53.570;10.084;2023-02-15T02:59:32;68.80;;;32.90;;
70560;SDS011;58109;53.570;10.084;2023-02-15T03:02:07;68.10;;;31.23;;
70560;SDS011;58109;53.570;10.084;2023-02-15T03:04:38;71.93;;;33.20;;
70560;SDS011;58109;53.570;10.084;2023-02-15T03:07:10;71.10;;;32.33;;
70560;SDS011;58109;53.570;10.084;2023-02-15T03:09:38;69.77;;;32.73;;
70560;SDS011;58109;53.570;10.084;2023-02-15T03:12:07;76.90;;;34.03;;
70560;SDS011;58109;53.570;10.084;2023-02-15T03:14:36;67.80;;;31.53;;
70560;SDS011;58109;53.570;10.084;2023-02-15T03:17:02;73.33;;;32.63;;
70560;SDS011;58109;53.570;10.084;2023-02-15T03:19:30;71.60;;;32.80;;
70560;SDS011;58109;53.570;10.084;2023-02-15T03:22:04;71.80;;;32.73;;
70560;SDS011;58109;53.570;10.084;2023-02-15T03:24:38;73.60;;;32.33;;
70560;SDS011;58109;53.570;10.084;2023-02-15T03:27:25;67.67;;;31.50;;
70560;SDS011;58109;53.570;10.084;2023-02-15T03:29:53;72.33;;;32.10;;
70560;SDS011;58109;53.570;10.084;2023-02-15T03:32:20;74.27;;;32.90;;
70560;SDS011;58109;53.570;10.084;2023-02-15T03:34:45;73.53;;;30.30;;
70560;SDS011;58109;53.570;10.084;2023-02-15T03:45:57;63.30;;;29.27;;
70560;SDS011;58109;53.570;10.084;2023-02-15T03:48:37;65.20;;;30.03;;
70560;SDS011;58109;53.570;10.084;2023-02-15T03:51:07;62.23;;;30.17;;
70560;SDS011;58109;53.570;10.084;2023-02-15T03:53:53;67.93;;;31.00;;
70560;SDS011;58109;53.570;10.084;2023-02-15T03:56:19;73.07;;;30.10;;
70560;SDS011;58109;53.570;10.084;2023-02-15T03:58:45;68.60;;;31.13;;
70560;SDS011;58109;53.570;10.084;2023-02-15T04:04:35;71.87;;;30.77;;
70560;SDS011;58109;53.570;10.084;2023-02-15T04:07:05;70.13;;;31.17;;
70560;SDS011;58109;53.570;10.084;2023-02-15T04:09:34;73.30;;;31.10;;
70560;SDS011;58109;53.570;10.084;2023-02-15T04:12:18;70.43;;;32.77;;
70560;SDS011;58109;53.570;10.084;2023-02-15T04:14:44;66.07;;;29.43;;
70560;SDS011;58109;53.570;10.084;2023-02-15T04:17:28;73.40;;;32.83;;
70560;SDS011;58109;53.570;10.084;2023-02-15T04:19:53;77.83;;;31.77;;
70560;SDS011;58109;53.570;10.084;2023-02-15T04:22:37;83.23;;;32.80;;
70560;SDS011;58109;53.570;10.084;2023-02-15T04:25:21;74.27;;;33.50;;
70560;SDS011;58109;53.570;10.084;2023-02-15T04:27:48;78.17;;;31.87;;
70560;SDS011;58109;53.570;10.084;2023-02-15T04:30:15;70.77;;;31.33;;
70560;SDS011;58109;53.570;10.084;2023-02-15T04:32:41;69.20;;;31.10;;
70560;SDS011;58109;53.570;10.084;2023-02-15T04:35:07;71.67;;;27.57;;
70560;SDS011;58109;53.570;10.084;2023-02-15T04:37:33;64.70;;;29.23;;
70560;SDS011;58109;53.570;10.084;2023-02-15T04:40:01;62.30;;;30.10;;
70560;SDS011;58109;53.570;10.084;2023-02-15T04:42:27;75.03;;;28.90;;
70560;SDS011;58109;53.570;10.084;2023-02-15T04:44:55;73.87;;;28.53;;
70560;SDS011;58109;53.570;10.084;2023-02-15T04:47:20;62.90;;;29.07;;
70560;SDS011;58109;53.570;10.084;2023-02-15T04:49:45;62.17;;;28.20;;
70560;SDS011;58109;53.570;10.084;2023-02-15T04:52:11;56.37;;;27.07;;
70560;SDS011;58109;53.570;10.084;2023-02-15T04:54:41;60.63;;;29.73;;
70560;SDS011;58109;53.570;10.084;2023-02-15T04:57:07;57.37;;;29.70;;
70560;SDS011;58109;53.570;10.084;2023-02-15T04:59:32;62.40;;;28.17;;
70560;SDS011;58109;53.570;10.084;2023-02-15T05:01:58;67.57;;;29.17;;
70560;SDS011;58109;53.570;10.084;2023-02-15T05:04:25;61.20;;;28.00;;
70560;SDS011;58109;53.570;10.084;2023-02-15T05:06:53;69.77;;;30.30;;
70560;SDS011;58109;53.570;10.084;2023-02-15T05:09:20;59.53;;;27.70;;
70560;SDS011;58109;53.570;10.084;2023-02-15T05:11:46;59.10;;;28.30;;
70560;SDS011;58109;53.570;10.084;2023-02-15T05:14:11;61.60;;;27.40;;
70560;SDS011;58109;53.570;10.084;2023-02-15T05:16:37;61.83;;;27.47;;
70560;SDS011;58109;53.570;10.084;2023-02-15T05:19:04;51.37;;;26.03;;
70560;SDS011;58109;53.570;10.084;2023-02-15T05:21:30;56.20;;;26.63;;
70560;SDS011;58109;53.570;10.084;2023-02-15T05:23:56;55.47;;;26.03;;
70560;SDS011;58109;53.570;10.084;2023-02-15T05:26:23;56.87;;;25.93;;
70560;SDS011;58109;53.570;10.084;2023-02-15T05:29:07;54.47;;;26.23;;
70560;SDS011;58109;53.570;10.084;2023-02-15T05:31:33;59.63;;;25.07;;
70560;SDS011;58109;53.570;10.084;2023-02-15T05:33:59;55.07;;;25.30;;
70560;SDS011;58109;53.570;10.084;2023-02-15T05:36:24;57.60;;;25.10;;
70560;SDS011;58109;53.570;10.084;2023-02-15T05:38:50;49.43;;;24.47;;
70560;SDS011;58109;53.570;10.084;2023-02-15T05:41:17;48.20;;;22.80;;
70560;SDS011;58109;53.570;10.084;2023-02-15T05:43:43;49.77;;;23.33;;
70560;SDS011;58109;53.570;10.084;2023-02-15T05:46:14;49.43;;;22.80;;
70560;SDS011;58109;53.570;10.084;2023-02-15T05:48:40;52.33;;;22.63;;
70560;SDS011;58109;53.570;10.084;2023-02-15T05:51:06;50.97;;;23.93;;
70560;SDS011;58109;53.570;10.084;2023-02-15T05:53:42;50.23;;;23.20;;
70560;SDS011;58109;53.570;10.084;2023-02-15T05:56:08;52.60;;;23.33;;
70560;SDS011;58109;53.570;10.084;2023-02-15T05:58:40;47.73;;;23.70;;
70560;SDS011;58109;53.570;10.084;2023-02-15T06:01:13;42.43;;;22.07;;
70560;SDS011;58109;53.570;10.084;2023-02-15T06:03:46;43.90;;;22.00;;
70560;SDS011;58109;53.570;10.084;2023-02-15T06:06:12;54.77;;;23.70;;
70560;SDS011;58109;53.570;10.084;2023-02-15T06:08:37;48.13;;;23.63;;
70560;SDS011;58109;53.570;10.084;2023-02-15T06:11:05;44.53;;;22.63;;
70560;SDS011;58109;53.570;10.084;2023-02-15T06:13:31;44.77;;;22.73;;
70560;SDS011;58109;53.570;10.084;2023-02-15T06:15:59;48.97;;;23.70;;
70560;SDS011;58109;53.570;10.084;2023-02-15T06:18:25;46.57;;;23.70;;
70560;SDS011;58109;53.570;10.084;2023-02-15T06:20:50;46.93;;;23.13;;
70560;SDS011;58109;53.570;10.084;2023-02-15T06:23:16;44.97;;;23.60;;
70560;SDS011;58109;53.570;10.084;2023-02-15T06:25:41;48.57;;;24.87;;
70560;SDS011;58109;53.570;10.084;2023-02-15T06:28:09;46.67;;;22.30;;
70560;SDS011;58109;53.570;10.084;2023-02-15T06:30:37;46.67;;;24.20;;
70560;SDS011;58109;53.570;10.084;2023-02-15T06:33:02;50.07;;;24.23;;
70560;SDS011;58109;53.570;10.084;2023-02-15T06:35:28;46.73;;;24.30;;
70560;SDS011;58109;53.570;10.084;2023-02-15T06:37:53;48.90;;;24.50;;
70560;SDS011;58109;53.570;10.084;2023-02-15T06:40:19;48.43;;;23.60;;
70560;SDS011;58109;53.570;10.084;2023-02-15T06:42:44;49.43;;;24.70;;
70560;SDS011;58109;53.570;10.084;2023-02-15T06:45:10;49.73;;;23.30;;
70560;SDS011;58109;53.570;10.084;2023-02-15T06:47:45;52.40;;;25.47;;
70560;SDS011;58109;53.570;10.084;2023-02-15T06:50:13;45.33;;;23.30;;
70560;SDS011;58109;53.570;10.084;2023-02-15T06:52:38;52.23;;;24.37;;
70560;SDS011;58109;53.570;10.084;2023-02-15T06:55:04;52.17;;;25.90;;
70560;SDS011;58109;53.570;10.084;2023-02-15T06:57:34;46.10;;;23.02;;
70560;SDS011;58109;53.570;10.084;2023-02-15T07:00:02;43.47;;;21.90;;
70560;SDS011;58109;53.570;10.084;2023-02-15T07:02:32;42.30;;;23.50;;
70560;SDS011;58109;53.570;10.084;2023-02-15T07:04:57;49.97;;;23.97;;
70560;SDS011;58109;53.570;10.084;2023-02-15T07:07:23;52.50;;;24.30;;
70560;SDS011;58109;53.570;10.084;2023-02-15T07:09:50;67.53;;;26.50;;
70560;SDS011;58109;53.570;10.084;2023-02-15T07:12:16;58.20;;;25.80;;
70560;SDS011;58109;53.570;10.084;2023-02-15T07:15:02;52.13;;;24.80;;
70560;SDS011;58109;53.570;10.084;2023-02-15T07:17:30;56.03;;;26.80;;
70560;SDS011;58109;53.570;10.084;2023-02-15T07:19:56;50.47;;;25.60;;
70560;SDS011;58109;53.570;10.084;2023-02-15T07:22:21;58.87;;;26.17;;
70560;SDS011;58109;53.570;10.084;2023-02-15T07:24:47;50.90;;;25.50;;
70560;SDS011;58109;53.570;10.084;2023-02-15T07:27:15;59.20;;;25.50;;
70560;SDS011;58109;53.570;10.084;2023-02-15T07:29:43;62.00;;;25.30;;
70560;SDS011;58109;53.570;10.084;2023-02-15T07:32:09;59.17;;;25.03;;
70560;SDS011;58109;53.570;10.084;2023-02-15T07:34:34;52.43;;;24.60;;
70560;SDS011;58109;53.570;10.084;2023-02-15T07:37:02;49.63;;;23.70;;
70560;SDS011;58109;53.570;10.084;2023-02-15T07:39:27;66.47;;;24.80;;
70560;SDS011;58109;53.570;10.084;2023-02-15T07:41:56;61.90;;;29.23;;
70560;SDS011;58109;53.570;10.084;2023-02-15T07:44:21;72.87;;;31.10;;
70560;SDS011;58109;53.570;10.084;2023-02-15T07:46:49;58.77;;;26.90;;
70560;SDS011;58109;53.570;10.084;2023-02-15T07:49:14;64.83;;;27.17;;
70560;SDS011;58109;53.570;10.084;2023-02-15T07:51:40;50.10;;;23.87;;
70560;SDS011;58109;53.570;10.084;2023-02-15T07:54:14;51.93;;;23.20;;
70560;SDS011;58109;53.570;10.084;2023-02-15T07:56:42;49.97;;;23.80;;
70560;SDS011;58109;53.570;10.084;2023-02-15T07:59:12;57.77;;;25.00;;
70560;SDS011;58109;53.570;10.084;2023-02-15T08:01:38;52.17;;;25.90;;
70560;SDS011;58109;53.570;10.084;2023-02-15T08:04:04;53.17;;;25.60;;
70560;SDS011;58109;53.570;10.084;2023-02-15T08:06:33;57.50;;;25.40;;
70560;SDS011;58109;53.570;10.084;2023-02-15T08:08:59;55.90;;;25.83;;
70560;SDS011;58109;53.570;10.084;2023-02-15T08:11:29;50.97;;;24.63;;
70560;SDS011;58109;53.570;10.084;2023-02-15T08:14:02;59.20;;;27.30;;
70560;SDS011;58109;53.570;10.084;2023-02-15T08:16:39;64.50;;;26.07;;
70560;SDS011;58109;53.570;10.084;2023-02-15T08:21:53;57.53;;;25.80;;
70560;SDS011;58109;53.570;10.084;2023-02-15T08:24:22;51.43;;;24.03;;
70560;SDS011;58109;53.570;10.084;2023-02-15T08:26:48;55.40;;;24.70;;
70560;SDS011;58109;53.570;10.084;2023-02-15T08:29:14;46.10;;;22.37;;
70560;SDS011;58109;53.570;10.084;2023-02-15T08:31:41;53.03;;;24.00;;
70560;SDS011;58109;53.570;10.084;2023-02-15T08:34:09;48.67;;;22.80;;
70560;SDS011;58109;53.570;10.084;2023-02-15T08:36:37;52.13;;;23.37;;
70560;SDS011;58109;53.570;10.084;2023-02-15T08:39:06;63.53;;;25.47;;
70560;SDS011;58109;53.570;10.084;2023-02-15T08:41:35;56.93;;;25.80;;
70560;SDS011;58109;53.570;10.084;2023-02-15T08:44:05;54.83;;;25.15;;
70560;SDS011;58109;53.570;10.084;2023-02-15T08:46:35;44.87;;;21.27;;
70560;SDS011;58109;53.570;10.084;2023-02-15T08:49:02;49.87;;;23.20;;
70560;SDS011;58109;53.570;10.084;2023-02-15T08:51:31;44.37;;;21.90;;
70560;SDS011;58109;53.570;10.084;2023-02-15T08:53:59;44.50;;;22.47;;
70560;SDS011;58109;53.570;10.084;2023-02-15T08:56:27;48.20;;;23.40;;
70560;SDS011;58109;53.570;10.084;2023-02-15T08:58:54;49.80;;;22.50;;
70560;SDS011;58109;53.570;10.084;2023-02-15T09:01:21;43.77;;;21.43;;
70560;SDS011;58109;53.570;10.084;2023-02-15T09:03:49;47.00;;;23.57;;
70560;SDS011;58109;53.570;10.084;2023-02-15T09:06:17;47.50;;;24.20;;
70560;SDS011;58109;53.570;10.084;2023-02-15T09:08:43;46.07;;;23.57;;
70560;SDS011;58109;53.570;10.084;2023-02-15T09:13:47;41.10;;;20.57;;
70560;SDS011;58109;53.570;10.084;2023-02-15T09:16:13;35.97;;;18.87;;
70560;SDS011;58109;53.570;10.084;2023-02-15T09:18:38;48.33;;;22.93;;
70560;SDS011;58109;53.570;10.084;2023-02-15T09:21:08;45.33;;;21.87;;
70560;SDS011;58109;53.570;10.084;2023-02-15T09:23:41;39.03;;;19.80;;
70560;SDS011;58109;53.570;10.084;2023-02-15T09:26:11;53.87;;;26.13;;
70560;SDS011;58109;53.570;10.084;2023-02-15T09:28:37;59.00;;;27.20;;
70560;SDS011;58109;53.570;10.084;2023-02-15T09:33:35;52.40;;;24.80;;
70560;SDS011;58109;53.570;10.084;2023-02-15T09:36:02;58.87;;;28.80;;
70560;SDS011;58109;53.570;10.084;2023-02-15T09:38:28;52.77;;;25.90;;
70560;SDS011;58109;53.570;10.084;2023-02-15T09:41:02;58.10;;;27.97;;
70560;SDS011;58109;53.570;10.084;2023-02-15T09:43:46;62.07;;;27.57;;
70560;SDS011;58109;53.570;10.084;2023-02-15T09:57:35;57.33;;;28.63;;
70560;SDS011;58109;53.570;10.084;2023-02-15T10:05:50;61.20;;;26.23;;
70560;SDS011;58109;53.570;10.084;2023-02-15T10:11:14;60.77;;;27.37;;
70560;SDS011;58109;53.570;10.084;2023-02-15T10:19:21;56.70;;;26.93;;
70560;SDS011;58109;53.570;10.084;2023-02-15T10:21:58;58.10;;;28.20;;
70560;SDS011;58109;53.570;10.084;2023-02-15T10:27:06;57.00;;;25.77;;
70560;SDS011;58109;53.570;10.084;2023-02-15T10:29:42;46.87;;;24.97;;
70560;SDS011;58109;53.570;10.084;2023-02-15T10:51:32;55.70;;;28.63;;
70560;SDS011;58109;53.570;10.084;2023-02-15T10:56:36;66.30;;;30.17;;
70560;SDS011;58109;53.570;10.084;2023-02-15T10:59:17;73.63;;;31.30;;
70560;SDS011;58109;53.570;10.084;2023-02-15T11:01:51;59.50;;;28.97;;
70560;SDS011;58109;53.570;10.084;2023-02-15T11:10:13;68.13;;;32.37;;
70560;SDS011;58109;53.570;10.084;2023-02-15T11:12:55;69.30;;;32.93;;
70560;SDS011;58109;53.570;10.084;2023-02-15T11:16:03;72.67;;;34.90;;
70560;SDS011;58109;53.570;10.084;2023-02-15T11:21:17;71.63;;;34.93;;
70560;SDS011;58109;53.570;10.084;2023-02-15T11:23:54;75.43;;;34.50;;
70560;SDS011;58109;53.570;10.084;2023-02-15T11:29:01;72.97;;;34.00;;
70560;SDS011;58109;53.570;10.084;2023-02-15T11:31:34;75.40;;;36.10;;
70560;SDS011;58109;53.570;10.084;2023-02-15T11:34:11;75.80;;;33.67;;
70560;SDS011;58109;53.570;10.084;2023-02-15T11:36:41;76.67;;;33.87;;
70560;SDS011;58109;53.570;10.084;2023-02-15T11:39:14;73.30;;;36.00;;
70560;SDS011;58109;53.570;10.084;2023-02-15T11:41:52;73.00;;;34.67;;
70560;SDS011;58109;53.570;10.084;2023-02-15T11:46:45;76.27;;;37.07;;
70560;SDS011;58109;53.570;10.084;2023-02-15T11:49:30;88.20;;;36.83;;
70560;SDS011;58109;53.570;10.084;2023-02-15T11:51:57;73.13;;;35.40;;
70560;SDS011;58109;53.570;10.084;2023-02-15T11:54:30;82.67;;;36.57;;
70560;SDS011;58109;53.570;10.084;2023-02-15T11:56:58;85.60;;;37.97;;
70560;SDS011;58109;53.570;10.084;2023-02-15T11:59:28;79.97;;;37.90;;
70560;SDS011;58109;53.570;10.084;2023-02-15T12:01:57;91.80;;;38.43;;
70560;SDS011;58109;53.570;10.084;2023-02-15T12:04:29;74.10;;;36.33;;
70560;SDS011;58109;53.570;10.084;2023-02-15T12:06:58;78.47;;;37.33;;
70560;SDS011;58109;53.570;10.084;2023-02-15T12:14:58;76.03;;;38.90;;
70560;SDS011;58109;53.570;10.084;2023-02-15T12:17:27;76.93;;;37.93;;
70560;SDS011;58109;53.570;10.084;2023-02-15T12:19:57;80.57;;;38.70;;
70560;SDS011;58109;53.570;10.084;2023-02-15T12:22:33;76.90;;;38.73;;
70560;SDS011;58109;53.570;10.084;2023-02-15T12:25:19;77.10;;;39.93;;
70560;SDS011;58109;53.570;10.084;2023-02-15T12:27:54;78.93;;;40.07;;
70560;SDS011;58109;53.570;10.084;2023-02-15T12:30:24;74.63;;;37.80;;
70560;SDS011;58109;53.570;10.084;2023-02-15T12:33:15;77.10;;;38.20;;
70560;SDS011;58109;53.570;10.084;2023-02-15T12:35:46;71.23;;;35.83;;
70560;SDS011;58109;53.570;10.084;2023-02-15T12:40:40;66.33;;;36.30;;
70560;SDS011;58109;53.570;10.084;2023-02-15T12:43:27;72.17;;;35.63;;
70560;SDS011;58109;53.570;10.084;2023-02-15T12:46:28;67.60;;;36.17;;
70560;SDS011;58109;53.570;10.084;2023-02-15T12:51:45;75.03;;;35.47;;
70560;SDS011;58109;53.570;10.084;2023-02-15T12:54:26;69.33;;;36.43;;
70560;SDS011;58109;53.570;10.084;2023-02-15T12:56:53;68.47;;;35.90;;
70560;SDS011;58109;53.570;10.084;2023-02-15T12:59:19;70.60;;;35.73;;
70560;SDS011;58109;53.570;10.084;2023-02-15T13:01:45;61.80;;;34.87;;
70560;SDS011;58109;53.570;10.084;2023-02-15T13:04:29;66.87;;;36.03;;
70560;SDS011;58109;53.570;10.084;2023-02-15T13:06:56;73.90;;;38.00;;
70560;SDS011;58109;53.570;10.084;2023-02-15T13:11:57;74.67;;;38.30;;
70560;SDS011;58109;53.570;10.084;2023-02-15T13:14:35;69.33;;;37.40;;
70560;SDS011;58109;53.570;10.084;2023-02-15T13:17:02;72.13;;;37.50;;
70560;SDS011;58109;53.570;10.084;2023-02-15T13:22:02;57.13;;;32.50;;
70560;SDS011;58109;53.570;10.084;2023-02-15T13:24:37;59.23;;;31.80;;
70560;SDS011;58109;53.570;10.084;2023-02-15T13:27:04;58.00;;;33.90;;
70560;SDS011;58109;53.570;10.084;2023-02-15T13:29:34;49.83;;;31.03;;
70560;SDS011;58109;53.570;10.084;2023-02-15T13:32:11;48.47;;;27.20;;
70560;SDS011;58109;53.570;10.084;2023-02-15T13:34:40;51.50;;;29.90;;
70560;SDS011;58109;53.570;10.084;2023-02-15T13:39:43;44.60;;;26.03;;
70560;SDS011;58109;53.570;10.084;2023-02-15T13:42:30;42.73;;;26.13;;
70560;SDS011;58109;53.570;10.084;2023-02-15T13:48:03;45.73;;;26.70;;
70560;SDS011;58109;53.570;10.084;2023-02-15T13:53:24;39.13;;;23.77;;
70560;SDS011;58109;53.570;10.084;2023-02-15T14:01:46;45.33;;;23.33;;
70560;SDS011;58109;53.570;10.084;2023-02-15T14:12:55;52.37;;;23.33;;
70560;SDS011;58109;53.570;10.084;2023-02-15T14:18:14;40.30;;;22.67;;
70560;SDS011;58109;53.570;10.084;2023-02-15T14:21:14;43.17;;;23.17;;
70560;SDS011;58109;53.570;10.084;2023-02-15T14:29:16;37.53;;;23.03;;
70560;SDS011;58109;53.570;10.084;2023-02-15T14:31:48;44.43;;;23.93;;
70560;SDS011;58109;53.570;10.084;2023-02-15T14:36:45;39.73;;;24.00;;
70560;SDS011;58109;53.570;10.084;2023-02-15T14:42:42;45.20;;;23.87;;
70560;SDS011;58109;53.570;10.084;2023-02-15T14:54:10;43.70;;;24.50;;
70560;SDS011;58109;53.570;10.084;2023-02-15T14:59:28;46.97;;;24.70;;
70560;SDS011;58109;53.570;10.084;2023-02-15T15:09:40;42.33;;;24.10;;
70560;SDS011;58109;53.570;10.084;2023-02-15T15:12:13;51.43;;;25.63;;
70560;SDS011;58109;53.570;10.084;2023-02-15T15:15:06;41.30;;;24.13;;
70560;SDS011;58109;53.570;10.084;2023-02-15T15:42:13;51.47;;;27.53;;
70560;SDS011;58109;53.570;10.084;2023-02-15T15:50:25;50.77;;;27.93;;
70560;SDS011;58109;53.570;10.084;2023-02-15T15:52:54;41.67;;;24.40;;
70560;SDS011;58109;53.570;10.084;2023-02-15T15:55:21;44.13;;;25.13;;
70560;SDS011;58109;53.570;10.084;2023-02-15T15:57:52;46.00;;;26.47;;
70560;SDS011;58109;53.570;10.084;2023-02-15T16:03:05;45.73;;;24.50;;
70560;SDS011;58109;53.570;10.084;2023-02-15T16:05:37;44.17;;;25.60;;
70560;SDS011;58109;53.570;10.084;2023-02-15T16:08:04;48.33;;;25.80;;
70560;SDS011;58109;53.570;10.084;2023-02-15T16:10:32;45.97;;;24.00;;
70560;SDS011;58109;53.570;10.084;2023-02-15T16:12:59;45.97;;;24.47;;
70560;SDS011;58109;53.570;10.084;2023-02-15T16:15:25;38.30;;;23.80;;
70560;SDS011;58109;53.570;10.084;2023-02-15T16:18:02;45.30;;;24.37;;
70560;SDS011;58109;53.570;10.084;2023-02-15T16:28:56;40.63;;;23.53;;
70560;SDS011;58109;53.570;10.084;2023-02-15T16:31:23;45.30;;;26.20;;
70560;SDS011;58109;53.570;10.084;2023-02-15T16:33:51;48.23;;;25.27;;
70560;SDS011;58109;53.570;10.084;2023-02-15T16:36:22;49.30;;;25.33;;
70560;SDS011;58109;53.570;10.084;2023-02-15T16:41:17;48.10;;;26.37;;
70560;SDS011;58109;53.570;10.084;2023-02-15T16:43:47;45.27;;;25.80;;
70560;SDS011;58109;53.570;10.084;2023-02-15T16:46:16;52.07;;;25.70;;
70560;SDS011;58109;53.570;10.084;2023-02-15T16:48:53;44.13;;;23.83;;
70560;SDS011;58109;53.570;10.084;2023-02-15T16:51:24;50.47;;;25.30;;
70560;SDS011;58109;53.570;10.084;2023-02-15T16:53:52;44.30;;;24.80;;
70560;SDS011;58109;53.570;10.084;2023-02-15T16:56:25;45.57;;;23.30;;
70560;SDS011;58109;53.570;10.084;2023-02-15T16:58:52;42.47;;;23.93;;
70560;SDS011;58109;53.570;10.084;2023-02-15T17:01:23;43.80;;;25.43;;
70560;SDS011;58109;53.570;10.084;2023-02-15T17:03:52;48.70;;;26.97;;
70560;SDS011;58109;53.570;10.084;2023-02-15T17:06:37;44.83;;;25.53;;
70560;SDS011;58109;53.570;10.084;2023-02-15T17:09:03;45.20;;;25.50;;
70560;SDS011;58109;53.570;10.084;2023-02-15T17:11:37;45.10;;;24.30;;
70560;SDS011;58109;53.570;10.084;2023-02-15T17:16:41;48.43;;;26.00;;
70560;SDS011;58109;53.570;10.084;2023-02-15T17:19:15;48.90;;;26.17;;
70560;SDS011;58109;53.570;10.084;2023-02-15T17:21:46;55.23;;;27.50;;
70560;SDS011;58109;53.570;10.084;2023-02-15T17:24:24;45.10;;;24.37;;
70560;SDS011;58109;53.570;10.084;2023-02-15T17:26:55;40.67;;;24.70;;
70560;SDS011;58109;53.570;10.084;2023-02-15T17:32:30;43.63;;;24.77;;
70560;SDS011;58109;53.570;10.084;2023-02-15T17:35:23;45.73;;;25.77;;
70560;SDS011;58109;53.570;10.084;2023-02-15T17:38:03;49.40;;;26.33;;
70560;SDS011;58109;53.570;10.084;2023-02-15T17:40:31;45.47;;;24.87;;
70560;SDS011;58109;53.570;10.084;2023-02-15T17:42:58;47.23;;;24.67;;
70560;SDS011;58109;53.570;10.084;2023-02-15T17:45:34;40.47;;;24.50;;
70560;SDS011;58109;53.570;10.084;2023-02-15T17:48:03;47.67;;;25.10;;
70560;SDS011;58109;53.570;10.084;2023-02-15T17:50:43;46.63;;;25.83;;
70560;SDS011;58109;53.570;10.084;2023-02-15T17:53:10;47.83;;;25.43;;
70560;SDS011;58109;53.570;10.084;2023-02-15T17:55:36;46.73;;;24.40;;
70560;SDS011;58109;53.570;10.084;2023-02-15T17:58:18;42.13;;;23.77;;
70560;SDS011;58109;53.570;10.084;2023-02-15T18:00:48;44.63;;;23.93;;
70560;SDS011;58109;53.570;10.084;2023-02-15T18:06:23;46.87;;;25.17;;
70560;SDS011;58109;53.570;10.084;2023-02-15T18:09:09;47.93;;;25.40;;
70560;SDS011;58109;53.570;10.084;2023-02-15T18:11:57;43.30;;;22.93;;
70560;SDS011;58109;53.570;10.084;2023-02-15T18:14:22;46.83;;;25.17;;
70560;SDS011;58109;53.570;10.084;2023-02-15T18:16:48;51.57;;;24.60;;